< < Back
Terminal Aerodrome Forecast


Current Version              Previous Versions:   1  2  3  4  5  6  7  8  9  

Terminal Aerodrome Forecast

366
FTUS44 KBMX 312300
TAFMGM
TAF
KMGM 312320Z 0100/0124 12003KT P6SM OVC250
     FM011400 13007KT P6SM BKN025
     FM011700 15009KT 6SM -RA BKN007 OVC015
     FM012100 19008KT 4SM RA BR OVC007=



Latest METAR

987
SAUS80 KWBC 010500 RRE
MTRMGM
METAR KMGM 010453Z AUTO 12005KT 10SM CLR 07/M02 A3023 RMK AO2 SLP237
T00721022


USA.gov is the U.S. government's official web portal to all federal, state and local government web resources and services.